메인 페이지
METAR-TAF:

METAR-TAF

공항 :

솔트레이크시티, 유타, 미국

솔트레이크시티 국제공항

위도: 40-46-41N, 경도: 111-58-10W, 고도: 1288m

현재 날씨관측

예보는 11분 전, 20:54시(UTC)에 발표되었습니다.
남남동4kt
온도 19°C
습도 11%
기압 1007 hPa
시정: 16.1km
고도 10000ft 상공 구름 조금
고도 14000ft 상공 구름 보통
고도 23000ft 상공 구름 많음

METAR: KSLC 192054Z 16004KT 10SM FEW100 SCT140 BKN230 19/M12 A2975 RMK AO2 SLP045 VIRGA N-SE AND S AND DSNT SW-W ACSL DSNT SE T01891117 58023

시각: 15:05 (21:05 UTC)

예보

예보는 9분 전, 20:56시(UTC)에 발표되었습니다.
예보 대상 시간: 19일 21시부터 20일 24시까지 (UTC)
남남동4kt
시정: 10km
고도 8000ft 상공 구름 보통
고도 15000ft 상공 구름 많음
19일 2200시부터 (UTC)
북북서10kt
시정: 10km
고도 8000ft 상공 구름 보통
고도 12000ft 상공 구름 많음
20일 0900시부터 (UTC)
7kt
시정: 10km
고도 3000ft 상공 구름 보통
고도 6000ft 상공 구름 많음
시계 내 소나기
20일 2100시부터 (UTC)
북서10kt
시정: 10km
고도 6000ft 상공 구름 보통
고도 12000ft 상공 구름 많음

TAF: KSLC 192056Z 1921/2024 15004KT P6SM SCT080 BKN150 FM192200 33010KT P6SM SCT080 BKN120 FM200900 35007KT P6SM VCSH SCT030 BKN060 FM202100 31010KT P6SM SCT060 BKN120

4,000개 이상의 공항 관측 자료 및 예보 (METAR 및 TAF 보고).

지도상에서 검색 가능한 기상관측소가 노란 점과 빨간 점으로 표시되어 있습니다.

기상관측소 명을 보려면 표시 위로 마우스를 이동하세요.

날씨 관측과 예보를 보려면 클릭하세요.

지도 변경 : 확대하려면 엑스 표시가 있는 녹색 버튼, 축소하려면 빼기 표시가 있는 녹색 버튼, 다음 페이지의 지도를 보려면 녹색 화살표를 클릭하세요.


METAR-TAF: